sensor_id;sensor_type;location;lat;lon;timestamp;temperature;humidity
20672;DHT22;10495;50.922;4.760;2023-06-14T00:00:20;19.70;52.90
20672;DHT22;10495;50.922;4.760;2023-06-14T00:02:46;19.60;52.80
20672;DHT22;10495;50.922;4.760;2023-06-14T00:05:11;19.60;52.80
20672;DHT22;10495;50.922;4.760;2023-06-14T00:07:41;19.60;52.90
20672;DHT22;10495;50.922;4.760;2023-06-14T00:10:14;19.50;53.10
20672;DHT22;10495;50.922;4.760;2023-06-14T00:12:40;19.40;53.10
20672;DHT22;10495;50.922;4.760;2023-06-14T00:15:06;19.50;53.50
20672;DHT22;10495;50.922;4.760;2023-06-14T00:17:32;19.40;53.30
20672;DHT22;10495;50.922;4.760;2023-06-14T00:19:59;19.40;53.60
20672;DHT22;10495;50.922;4.760;2023-06-14T00:22:25;19.30;53.60
20672;DHT22;10495;50.922;4.760;2023-06-14T00:24:51;19.30;53.60
20672;DHT22;10495;50.922;4.760;2023-06-14T00:27:17;19.30;53.70
20672;DHT22;10495;50.922;4.760;2023-06-14T00:29:43;19.20;53.50
20672;DHT22;10495;50.922;4.760;2023-06-14T00:32:08;19.10;53.70
20672;DHT22;10495;50.922;4.760;2023-06-14T00:34:34;19.00;53.60
20672;DHT22;10495;50.922;4.760;2023-06-14T00:37:00;19.10;54.00
20672;DHT22;10495;50.922;4.760;2023-06-14T00:39:26;19.00;54.10
20672;DHT22;10495;50.922;4.760;2023-06-14T00:41:51;19.00;54.20
20672;DHT22;10495;50.922;4.760;2023-06-14T00:44:17;18.90;54.30
20672;DHT22;10495;50.922;4.760;2023-06-14T00:46:44;18.90;54.60
20672;DHT22;10495;50.922;4.760;2023-06-14T00:49:11;18.90;54.50
20672;DHT22;10495;50.922;4.760;2023-06-14T00:51:37;18.80;54.40
20672;DHT22;10495;50.922;4.760;2023-06-14T00:54:03;18.80;54.60
20672;DHT22;10495;50.922;4.760;2023-06-14T00:56:28;18.60;54.40
20672;DHT22;10495;50.922;4.760;2023-06-14T00:58:55;18.60;54.60
20672;DHT22;10495;50.922;4.760;2023-06-14T01:01:21;18.50;54.80
20672;DHT22;10495;50.922;4.760;2023-06-14T01:03:47;18.50;55.10
20672;DHT22;10495;50.922;4.760;2023-06-14T01:11:28;18.40;55.20
20672;DHT22;10495;50.922;4.760;2023-06-14T01:13:58;18.30;55.40
20672;DHT22;10495;50.922;4.760;2023-06-14T01:16:25;18.30;55.40
20672;DHT22;10495;50.922;4.760;2023-06-14T01:18:53;18.30;55.30
20672;DHT22;10495;50.922;4.760;2023-06-14T01:21:23;18.30;55.30
20672;DHT22;10495;50.922;4.760;2023-06-14T01:23:49;18.20;55.30
20672;DHT22;10495;50.922;4.760;2023-06-14T01:26:19;18.10;55.70
20672;DHT22;10495;50.922;4.760;2023-06-14T01:28:45;18.00;56.10
20672;DHT22;10495;50.922;4.760;2023-06-14T01:31:18;17.90;56.10
20672;DHT22;10495;50.922;4.760;2023-06-14T01:33:45;17.80;56.30
20672;DHT22;10495;50.922;4.760;2023-06-14T01:36:12;17.80;56.40
20672;DHT22;10495;50.922;4.760;2023-06-14T01:38:39;17.80;56.30
20672;DHT22;10495;50.922;4.760;2023-06-14T01:41:05;17.90;56.10
20672;DHT22;10495;50.922;4.760;2023-06-14T01:43:33;17.70;56.60
20672;DHT22;10495;50.922;4.760;2023-06-14T01:46:00;17.60;56.60
20672;DHT22;10495;50.922;4.760;2023-06-14T01:48:27;17.60;56.60
20672;DHT22;10495;50.922;4.760;2023-06-14T01:50:53;17.60;56.80
20672;DHT22;10495;50.922;4.760;2023-06-14T01:53:18;17.60;56.60
20672;DHT22;10495;50.922;4.760;2023-06-14T01:55:44;17.60;56.70
20672;DHT22;10495;50.922;4.760;2023-06-14T01:58:14;17.70;56.70
20672;DHT22;10495;50.922;4.760;2023-06-14T02:00:41;17.70;56.60
20672;DHT22;10495;50.922;4.760;2023-06-14T02:03:08;17.70;56.70
20672;DHT22;10495;50.922;4.760;2023-06-14T02:05:34;17.60;56.80
20672;DHT22;10495;50.922;4.760;2023-06-14T02:08:00;17.60;56.70
20672;DHT22;10495;50.922;4.760;2023-06-14T02:10:26;17.60;56.60
20672;DHT22;10495;50.922;4.760;2023-06-14T02:12:51;17.50;56.90
20672;DHT22;10495;50.922;4.760;2023-06-14T02:15:17;17.50;57.00
20672;DHT22;10495;50.922;4.760;2023-06-14T02:17:44;17.50;57.40
20672;DHT22;10495;50.922;4.760;2023-06-14T02:20:10;17.40;57.20
20672;DHT22;10495;50.922;4.760;2023-06-14T02:22:36;17.40;57.40
20672;DHT22;10495;50.922;4.760;2023-06-14T02:25:02;17.40;57.30
20672;DHT22;10495;50.922;4.760;2023-06-14T02:27:27;17.40;57.20
20672;DHT22;10495;50.922;4.760;2023-06-14T02:29:53;17.40;57.30
20672;DHT22;10495;50.922;4.760;2023-06-14T02:32:18;17.40;57.30
20672;DHT22;10495;50.922;4.760;2023-06-14T02:34:44;17.40;57.30
20672;DHT22;10495;50.922;4.760;2023-06-14T02:37:10;17.40;57.30
20672;DHT22;10495;50.922;4.760;2023-06-14T02:39:36;17.30;57.20
20672;DHT22;10495;50.922;4.760;2023-06-14T02:42:02;17.40;57.10
20672;DHT22;10495;50.922;4.760;2023-06-14T02:44:29;17.30;57.20
20672;DHT22;10495;50.922;4.760;2023-06-14T02:46:55;17.20;57.20
20672;DHT22;10495;50.922;4.760;2023-06-14T02:49:21;17.20;57.30
20672;DHT22;10495;50.922;4.760;2023-06-14T02:51:47;17.20;57.30
20672;DHT22;10495;50.922;4.760;2023-06-14T02:54:12;17.20;57.30
20672;DHT22;10495;50.922;4.760;2023-06-14T02:56:39;17.10;57.50
20672;DHT22;10495;50.922;4.760;2023-06-14T02:59:04;17.20;57.30
20672;DHT22;10495;50.922;4.760;2023-06-14T03:01:30;17.20;57.20
20672;DHT22;10495;50.922;4.760;2023-06-14T03:03:59;17.20;57.30
20672;DHT22;10495;50.922;4.760;2023-06-14T03:06:25;17.10;57.30
20672;DHT22;10495;50.922;4.760;2023-06-14T03:08:50;17.10;57.40
20672;DHT22;10495;50.922;4.760;2023-06-14T03:11:16;17.00;57.40
20672;DHT22;10495;50.922;4.760;2023-06-14T03:13:45;17.00;57.50
20672;DHT22;10495;50.922;4.760;2023-06-14T03:16:12;17.00;57.70
20672;DHT22;10495;50.922;4.760;2023-06-14T03:18:37;17.00;57.60
20672;DHT22;10495;50.922;4.760;2023-06-14T03:21:03;16.90;57.60
20672;DHT22;10495;50.922;4.760;2023-06-14T03:23:30;16.90;57.60
20672;DHT22;10495;50.922;4.760;2023-06-14T03:25:56;16.90;57.60
20672;DHT22;10495;50.922;4.760;2023-06-14T03:28:22;16.90;57.80
20672;DHT22;10495;50.922;4.760;2023-06-14T03:30:48;16.80;57.90
20672;DHT22;10495;50.922;4.760;2023-06-14T03:33:13;16.90;57.90
20672;DHT22;10495;50.922;4.760;2023-06-14T03:35:40;16.80;57.80
20672;DHT22;10495;50.922;4.760;2023-06-14T03:38:06;16.80;57.80
20672;DHT22;10495;50.922;4.760;2023-06-14T03:40:32;16.70;57.90
20672;DHT22;10495;50.922;4.760;2023-06-14T03:42:57;16.70;57.90
20672;DHT22;10495;50.922;4.760;2023-06-14T03:45:23;16.60;58.00
20672;DHT22;10495;50.922;4.760;2023-06-14T03:47:49;16.60;58.00
20672;DHT22;10495;50.922;4.760;2023-06-14T03:50:16;16.70;58.10
20672;DHT22;10495;50.922;4.760;2023-06-14T03:52:42;16.70;58.00
20672;DHT22;10495;50.922;4.760;2023-06-14T03:55:09;16.70;58.00
20672;DHT22;10495;50.922;4.760;2023-06-14T03:57:35;16.70;58.10
20672;DHT22;10495;50.922;4.760;2023-06-14T04:00:01;16.60;58.20
20672;DHT22;10495;50.922;4.760;2023-06-14T04:02:26;16.60;58.10
20672;DHT22;10495;50.922;4.760;2023-06-14T04:04:54;16.60;58.10
20672;DHT22;10495;50.922;4.760;2023-06-14T04:07:20;16.60;58.40
20672;DHT22;10495;50.922;4.760;2023-06-14T04:09:46;16.50;58.40
20672;DHT22;10495;50.922;4.760;2023-06-14T04:12:12;16.60;58.50
20672;DHT22;10495;50.922;4.760;2023-06-14T04:14:41;16.60;58.50
20672;DHT22;10495;50.922;4.760;2023-06-14T04:17:06;16.60;58.90
20672;DHT22;10495;50.922;4.760;2023-06-14T04:19:32;16.70;58.70
20672;DHT22;10495;50.922;4.760;2023-06-14T04:21:59;16.80;58.60
20672;DHT22;10495;50.922;4.760;2023-06-14T04:24:27;16.80;58.60
20672;DHT22;10495;50.922;4.760;2023-06-14T04:26:54;16.80;58.70
20672;DHT22;10495;50.922;4.760;2023-06-14T04:29:20;16.80;58.70
20672;DHT22;10495;50.922;4.760;2023-06-14T04:31:46;16.90;58.80
20672;DHT22;10495;50.922;4.760;2023-06-14T04:34:12;16.90;58.70
20672;DHT22;10495;50.922;4.760;2023-06-14T04:36:44;17.10;58.40
20672;DHT22;10495;50.922;4.760;2023-06-14T04:39:15;17.20;58.20
20672;DHT22;10495;50.922;4.760;2023-06-14T04:41:43;17.20;58.20
20672;DHT22;10495;50.922;4.760;2023-06-14T04:44:08;17.30;58.20
20672;DHT22;10495;50.922;4.760;2023-06-14T04:46:35;17.40;58.30
20672;DHT22;10495;50.922;4.760;2023-06-14T04:49:17;17.50;58.30
20672;DHT22;10495;50.922;4.760;2023-06-14T04:51:44;17.60;58.40
20672;DHT22;10495;50.922;4.760;2023-06-14T04:54:10;17.70;58.50
20672;DHT22;10495;50.922;4.760;2023-06-14T04:56:40;17.90;58.60
20672;DHT22;10495;50.922;4.760;2023-06-14T04:59:05;18.30;58.70
20672;DHT22;10495;50.922;4.760;2023-06-14T05:01:32;18.70;58.70
20672;DHT22;10495;50.922;4.760;2023-06-14T05:03:58;19.20;58.20
20672;DHT22;10495;50.922;4.760;2023-06-14T05:06:24;19.80;58.00
20672;DHT22;10495;50.922;4.760;2023-06-14T05:08:50;20.40;57.40
20672;DHT22;10495;50.922;4.760;2023-06-14T05:11:17;20.90;56.90
20672;DHT22;10495;50.922;4.760;2023-06-14T05:13:43;21.50;55.80
20672;DHT22;10495;50.922;4.760;2023-06-14T05:16:10;22.00;55.40
20672;DHT22;10495;50.922;4.760;2023-06-14T05:18:36;22.50;54.40
20672;DHT22;10495;50.922;4.760;2023-06-14T05:21:03;23.00;54.30
20672;DHT22;10495;50.922;4.760;2023-06-14T05:23:30;23.50;54.00
20672;DHT22;10495;50.922;4.760;2023-06-14T05:25:55;23.90;53.20
20672;DHT22;10495;50.922;4.760;2023-06-14T05:28:22;24.30;51.70
20672;DHT22;10495;50.922;4.760;2023-06-14T05:30:48;24.60;50.70
20672;DHT22;10495;50.922;4.760;2023-06-14T05:33:13;24.70;49.80
20672;DHT22;10495;50.922;4.760;2023-06-14T05:35:39;25.10;48.60
20672;DHT22;10495;50.922;4.760;2023-06-14T05:38:04;25.30;48.40
20672;DHT22;10495;50.922;4.760;2023-06-14T05:40:31;25.10;48.50
20672;DHT22;10495;50.922;4.760;2023-06-14T05:42:56;25.30;48.50
20672;DHT22;10495;50.922;4.760;2023-06-14T05:45:22;25.60;48.60
20672;DHT22;10495;50.922;4.760;2023-06-14T05:47:48;25.50;48.60
20672;DHT22;10495;50.922;4.760;2023-06-14T05:50:13;25.80;48.50
20672;DHT22;10495;50.922;4.760;2023-06-14T05:52:39;26.00;47.80
20672;DHT22;10495;50.922;4.760;2023-06-14T05:55:05;26.20;48.40
20672;DHT22;10495;50.922;4.760;2023-06-14T05:57:31;26.50;47.70
20672;DHT22;10495;50.922;4.760;2023-06-14T05:59:57;26.60;47.10
20672;DHT22;10495;50.922;4.760;2023-06-14T06:02:22;26.70;47.50
20672;DHT22;10495;50.922;4.760;2023-06-14T06:04:48;27.00;48.00
20672;DHT22;10495;50.922;4.760;2023-06-14T06:07:13;27.30;47.10
20672;DHT22;10495;50.922;4.760;2023-06-14T06:09:39;27.50;47.30
20672;DHT22;10495;50.922;4.760;2023-06-14T06:12:06;27.50;47.40
20672;DHT22;10495;50.922;4.760;2023-06-14T06:14:32;27.90;47.00
20672;DHT22;10495;50.922;4.760;2023-06-14T06:16:58;27.90;46.60
20672;DHT22;10495;50.922;4.760;2023-06-14T06:19:24;28.30;47.30
20672;DHT22;10495;50.922;4.760;2023-06-14T06:21:50;28.50;47.10
20672;DHT22;10495;50.922;4.760;2023-06-14T06:24:15;28.60;46.80
20672;DHT22;10495;50.922;4.760;2023-06-14T06:26:41;28.70;46.30
20672;DHT22;10495;50.922;4.760;2023-06-14T06:29:07;28.90;45.70
20672;DHT22;10495;50.922;4.760;2023-06-14T06:31:32;29.10;46.40
20672;DHT22;10495;50.922;4.760;2023-06-14T06:33:58;29.20;45.80
20672;DHT22;10495;50.922;4.760;2023-06-14T06:36:24;29.10;46.10
20672;DHT22;10495;50.922;4.760;2023-06-14T06:38:50;29.20;46.10
20672;DHT22;10495;50.922;4.760;2023-06-14T06:41:16;29.40;46.00
20672;DHT22;10495;50.922;4.760;2023-06-14T06:43:41;29.60;45.90
20672;DHT22;10495;50.922;4.760;2023-06-14T06:46:07;29.80;45.90
20672;DHT22;10495;50.922;4.760;2023-06-14T06:48:33;29.90;45.60
20672;DHT22;10495;50.922;4.760;2023-06-14T06:50:58;30.10;45.50
20672;DHT22;10495;50.922;4.760;2023-06-14T06:53:24;30.10;45.60
20672;DHT22;10495;50.922;4.760;2023-06-14T06:55:49;30.00;45.70
20672;DHT22;10495;50.922;4.760;2023-06-14T06:58:15;30.20;45.30
20672;DHT22;10495;50.922;4.760;2023-06-14T07:00:41;30.20;45.90
20672;DHT22;10495;50.922;4.760;2023-06-14T07:03:06;30.30;45.50
20672;DHT22;10495;50.922;4.760;2023-06-14T07:05:32;30.40;45.10
20672;DHT22;10495;50.922;4.760;2023-06-14T07:07:58;30.20;44.90
20672;DHT22;10495;50.922;4.760;2023-06-14T07:10:24;30.10;45.60
20672;DHT22;10495;50.922;4.760;2023-06-14T07:12:52;30.20;44.90
20672;DHT22;10495;50.922;4.760;2023-06-14T07:15:18;30.50;44.90
20672;DHT22;10495;50.922;4.760;2023-06-14T07:17:43;30.40;44.10
20672;DHT22;10495;50.922;4.760;2023-06-14T07:20:09;30.40;44.50
20672;DHT22;10495;50.922;4.760;2023-06-14T07:22:42;30.50;46.50
20672;DHT22;10495;50.922;4.760;2023-06-14T07:25:11;30.90;44.30
20672;DHT22;10495;50.922;4.760;2023-06-14T07:27:44;30.90;45.70
20672;DHT22;10495;50.922;4.760;2023-06-14T07:30:11;31.30;45.20
20672;DHT22;10495;50.922;4.760;2023-06-14T07:32:36;31.60;44.60
20672;DHT22;10495;50.922;4.760;2023-06-14T07:35:02;31.70;44.80
20672;DHT22;10495;50.922;4.760;2023-06-14T07:37:28;31.60;44.70
20672;DHT22;10495;50.922;4.760;2023-06-14T07:39:54;31.70;44.50
20672;DHT22;10495;50.922;4.760;2023-06-14T07:42:19;31.20;44.30
20672;DHT22;10495;50.922;4.760;2023-06-14T07:44:46;31.30;44.00
20672;DHT22;10495;50.922;4.760;2023-06-14T07:47:11;31.30;45.00
20672;DHT22;10495;50.922;4.760;2023-06-14T07:49:37;31.60;44.10
20672;DHT22;10495;50.922;4.760;2023-06-14T07:52:03;31.80;44.60
20672;DHT22;10495;50.922;4.760;2023-06-14T07:54:30;31.80;43.50
20672;DHT22;10495;50.922;4.760;2023-06-14T07:56:57;31.70;43.00
20672;DHT22;10495;50.922;4.760;2023-06-14T07:59:23;31.50;43.70
20672;DHT22;10495;50.922;4.760;2023-06-14T08:01:49;31.30;43.60
20672;DHT22;10495;50.922;4.760;2023-06-14T08:04:15;31.40;43.40
20672;DHT22;10495;50.922;4.760;2023-06-14T08:06:41;31.40;43.50
20672;DHT22;10495;50.922;4.760;2023-06-14T08:09:10;31.20;43.60
20672;DHT22;10495;50.922;4.760;2023-06-14T08:11:35;31.50;44.10
20672;DHT22;10495;50.922;4.760;2023-06-14T08:14:01;31.70;43.80
20672;DHT22;10495;50.922;4.760;2023-06-14T08:16:27;31.60;43.80
20672;DHT22;10495;50.922;4.760;2023-06-14T08:18:52;31.80;43.90
20672;DHT22;10495;50.922;4.760;2023-06-14T08:21:18;31.50;44.10
20672;DHT22;10495;50.922;4.760;2023-06-14T08:23:43;31.60;43.70
20672;DHT22;10495;50.922;4.760;2023-06-14T08:26:09;31.90;43.80
20672;DHT22;10495;50.922;4.760;2023-06-14T08:28:35;31.90;43.60
20672;DHT22;10495;50.922;4.760;2023-06-14T08:31:01;31.50;44.20
20672;DHT22;10495;50.922;4.760;2023-06-14T08:33:27;31.50;43.60
20672;DHT22;10495;50.922;4.760;2023-06-14T08:35:52;31.60;43.60
20672;DHT22;10495;50.922;4.760;2023-06-14T08:38:18;31.40;44.40
20672;DHT22;10495;50.922;4.760;2023-06-14T08:40:45;31.90;44.30
20672;DHT22;10495;50.922;4.760;2023-06-14T08:43:13;31.90;42.80
20672;DHT22;10495;50.922;4.760;2023-06-14T08:45:38;31.70;43.10
20672;DHT22;10495;50.922;4.760;2023-06-14T08:48:06;31.60;42.60
20672;DHT22;10495;50.922;4.760;2023-06-14T08:50:32;31.60;42.70
20672;DHT22;10495;50.922;4.760;2023-06-14T08:53:01;31.10;43.00
20672;DHT22;10495;50.922;4.760;2023-06-14T08:55:29;30.90;43.10
20672;DHT22;10495;50.922;4.760;2023-06-14T08:57:56;30.90;43.30
20672;DHT22;10495;50.922;4.760;2023-06-14T09:00:26;30.80;43.40
20672;DHT22;10495;50.922;4.760;2023-06-14T09:02:52;30.80;43.50
20672;DHT22;10495;50.922;4.760;2023-06-14T09:05:26;31.10;42.80
20672;DHT22;10495;50.922;4.760;2023-06-14T09:07:53;31.20;43.00
20672;DHT22;10495;50.922;4.760;2023-06-14T09:10:22;31.30;42.70
20672;DHT22;10495;50.922;4.760;2023-06-14T09:12:48;31.30;43.20
20672;DHT22;10495;50.922;4.760;2023-06-14T09:15:13;31.10;42.70
20672;DHT22;10495;50.922;4.760;2023-06-14T09:17:40;31.30;42.10
20672;DHT22;10495;50.922;4.760;2023-06-14T09:20:07;31.70;42.20
20672;DHT22;10495;50.922;4.760;2023-06-14T09:22:37;31.80;42.10
20672;DHT22;10495;50.922;4.760;2023-06-14T09:25:03;31.60;42.20
20672;DHT22;10495;50.922;4.760;2023-06-14T09:27:30;31.40;42.20
20672;DHT22;10495;50.922;4.760;2023-06-14T09:29:55;31.60;41.90
20672;DHT22;10495;50.922;4.760;2023-06-14T09:32:21;31.90;41.50
20672;DHT22;10495;50.922;4.760;2023-06-14T09:34:47;31.10;41.70
20672;DHT22;10495;50.922;4.760;2023-06-14T09:37:29;30.90;41.40
20672;DHT22;10495;50.922;4.760;2023-06-14T09:39:55;31.20;41.50
20672;DHT22;10495;50.922;4.760;2023-06-14T09:42:21;31.10;41.70
20672;DHT22;10495;50.922;4.760;2023-06-14T09:44:48;31.40;40.70
20672;DHT22;10495;50.922;4.760;2023-06-14T09:47:18;31.00;40.80
20672;DHT22;10495;50.922;4.760;2023-06-14T09:49:44;30.60;41.10
20672;DHT22;10495;50.922;4.760;2023-06-14T09:52:17;30.80;41.30
20672;DHT22;10495;50.922;4.760;2023-06-14T09:54:44;30.70;41.00
20672;DHT22;10495;50.922;4.760;2023-06-14T09:57:17;30.60;41.60
20672;DHT22;10495;50.922;4.760;2023-06-14T09:59:47;30.60;41.10
20672;DHT22;10495;50.922;4.760;2023-06-14T10:02:25;30.50;41.50
20672;DHT22;10495;50.922;4.760;2023-06-14T10:05:11;30.70;41.10
20672;DHT22;10495;50.922;4.760;2023-06-14T10:08:04;30.90;41.10
20672;DHT22;10495;50.922;4.760;2023-06-14T10:10:33;30.80;40.80
20672;DHT22;10495;50.922;4.760;2023-06-14T10:12:59;30.70;40.60
20672;DHT22;10495;50.922;4.760;2023-06-14T10:18:09;30.90;41.40
20672;DHT22;10495;50.922;4.760;2023-06-14T10:20:55;31.00;41.80
20672;DHT22;10495;50.922;4.760;2023-06-14T10:23:23;31.30;41.70
20672;DHT22;10495;50.922;4.760;2023-06-14T10:25:50;31.80;40.80
20672;DHT22;10495;50.922;4.760;2023-06-14T10:28:18;31.80;40.50
20672;DHT22;10495;50.922;4.760;2023-06-14T10:31:03;32.00;40.70
20672;DHT22;10495;50.922;4.760;2023-06-14T10:33:29;31.60;40.90
20672;DHT22;10495;50.922;4.760;2023-06-14T10:36:29;31.20;41.50
20672;DHT22;10495;50.922;4.760;2023-06-14T10:41:28;30.70;40.60
20672;DHT22;10495;50.922;4.760;2023-06-14T10:46:38;30.40;40.90
20672;DHT22;10495;50.922;4.760;2023-06-14T10:49:04;30.10;40.70
20672;DHT22;10495;50.922;4.760;2023-06-14T10:51:38;29.50;41.60
20672;DHT22;10495;50.922;4.760;2023-06-14T10:54:15;29.60;41.80
20672;DHT22;10495;50.922;4.760;2023-06-14T10:56:51;29.30;40.80
20672;DHT22;10495;50.922;4.760;2023-06-14T10:59:18;29.10;41.20
20672;DHT22;10495;50.922;4.760;2023-06-14T11:02:07;28.90;40.60
20672;DHT22;10495;50.922;4.760;2023-06-14T11:04:49;28.70;40.80
20672;DHT22;10495;50.922;4.760;2023-06-14T11:12:47;28.10;41.00
20672;DHT22;10495;50.922;4.760;2023-06-14T11:15:13;27.80;41.20
20672;DHT22;10495;50.922;4.760;2023-06-14T11:17:38;27.80;41.10
20672;DHT22;10495;50.922;4.760;2023-06-14T11:20:11;28.00;41.70
20672;DHT22;10495;50.922;4.760;2023-06-14T11:22:45;28.20;41.60
20672;DHT22;10495;50.922;4.760;2023-06-14T11:25:14;28.50;41.30
20672;DHT22;10495;50.922;4.760;2023-06-14T11:27:42;28.40;41.30
20672;DHT22;10495;50.922;4.760;2023-06-14T11:30:08;28.50;41.30
20672;DHT22;10495;50.922;4.760;2023-06-14T11:32:36;28.40;41.30
20672;DHT22;10495;50.922;4.760;2023-06-14T11:35:05;28.20;41.40
20672;DHT22;10495;50.922;4.760;2023-06-14T11:37:31;28.30;41.50
20672;DHT22;10495;50.922;4.760;2023-06-14T11:40:01;28.00;41.10
20672;DHT22;10495;50.922;4.760;2023-06-14T11:42:29;28.10;41.50
20672;DHT22;10495;50.922;4.760;2023-06-14T11:44:55;28.20;41.40
20672;DHT22;10495;50.922;4.760;2023-06-14T11:47:21;28.30;40.90
20672;DHT22;10495;50.922;4.760;2023-06-14T11:49:47;28.50;40.90
20672;DHT22;10495;50.922;4.760;2023-06-14T11:52:14;28.40;40.90
20672;DHT22;10495;50.922;4.760;2023-06-14T11:54:40;28.10;40.90
20672;DHT22;10495;50.922;4.760;2023-06-14T11:57:07;28.30;40.80
20672;DHT22;10495;50.922;4.760;2023-06-14T11:59:38;28.40;40.80
20672;DHT22;10495;50.922;4.760;2023-06-14T12:02:05;28.50;40.80
20672;DHT22;10495;50.922;4.760;2023-06-14T12:04:31;28.40;40.90
20672;DHT22;10495;50.922;4.760;2023-06-14T12:06:57;28.50;40.90
20672;DHT22;10495;50.922;4.760;2023-06-14T12:09:35;28.40;41.10
20672;DHT22;10495;50.922;4.760;2023-06-14T12:12:00;28.30;40.70
20672;DHT22;10495;50.922;4.760;2023-06-14T12:14:30;28.20;40.70
20672;DHT22;10495;50.922;4.760;2023-06-14T12:17:06;28.20;41.10
20672;DHT22;10495;50.922;4.760;2023-06-14T12:19:41;27.90;41.10
20672;DHT22;10495;50.922;4.760;2023-06-14T12:22:09;27.90;40.90
20672;DHT22;10495;50.922;4.760;2023-06-14T12:24:35;28.10;40.40
20672;DHT22;10495;50.922;4.760;2023-06-14T12:27:01;28.00;40.40
20672;DHT22;10495;50.922;4.760;2023-06-14T12:29:32;27.70;40.60
20672;DHT22;10495;50.922;4.760;2023-06-14T12:31:58;27.70;40.50
20672;DHT22;10495;50.922;4.760;2023-06-14T12:34:24;27.80;40.90
20672;DHT22;10495;50.922;4.760;2023-06-14T12:36:50;27.90;40.60
20672;DHT22;10495;50.922;4.760;2023-06-14T12:39:16;27.80;40.70
20672;DHT22;10495;50.922;4.760;2023-06-14T12:41:42;27.80;40.50
20672;DHT22;10495;50.922;4.760;2023-06-14T12:44:08;28.10;40.50
20672;DHT22;10495;50.922;4.760;2023-06-14T12:46:34;28.10;40.80
20672;DHT22;10495;50.922;4.760;2023-06-14T12:49:00;28.40;40.80
20672;DHT22;10495;50.922;4.760;2023-06-14T12:51:26;28.30;40.60
20672;DHT22;10495;50.922;4.760;2023-06-14T12:53:52;28.10;40.10
20672;DHT22;10495;50.922;4.760;2023-06-14T12:56:18;28.10;39.90
20672;DHT22;10495;50.922;4.760;2023-06-14T12:58:43;27.70;40.00
20672;DHT22;10495;50.922;4.760;2023-06-14T13:01:09;27.70;40.40
20672;DHT22;10495;50.922;4.760;2023-06-14T13:03:35;27.80;40.90
20672;DHT22;10495;50.922;4.760;2023-06-14T13:06:01;28.10;40.40
20672;DHT22;10495;50.922;4.760;2023-06-14T13:08:27;28.50;40.70
20672;DHT22;10495;50.922;4.760;2023-06-14T13:10:53;28.40;40.20
20672;DHT22;10495;50.922;4.760;2023-06-14T13:13:19;28.40;40.30
20672;DHT22;10495;50.922;4.760;2023-06-14T13:15:45;28.60;39.30
20672;DHT22;10495;50.922;4.760;2023-06-14T13:18:11;28.50;39.50
20672;DHT22;10495;50.922;4.760;2023-06-14T13:20:39;28.40;39.60
20672;DHT22;10495;50.922;4.760;2023-06-14T13:23:05;28.40;39.50
20672;DHT22;10495;50.922;4.760;2023-06-14T13:25:33;28.40;39.20
20672;DHT22;10495;50.922;4.760;2023-06-14T13:27:59;28.30;39.00
20672;DHT22;10495;50.922;4.760;2023-06-14T13:30:25;28.20;39.50
20672;DHT22;10495;50.922;4.760;2023-06-14T13:32:51;28.10;39.20
20672;DHT22;10495;50.922;4.760;2023-06-14T13:35:18;28.00;39.50
20672;DHT22;10495;50.922;4.760;2023-06-14T13:37:44;28.10;38.80
20672;DHT22;10495;50.922;4.760;2023-06-14T13:40:10;28.10;39.10
20672;DHT22;10495;50.922;4.760;2023-06-14T13:42:36;28.30;39.80
20672;DHT22;10495;50.922;4.760;2023-06-14T13:45:05;28.20;38.90
20672;DHT22;10495;50.922;4.760;2023-06-14T13:47:31;28.10;39.50
20672;DHT22;10495;50.922;4.760;2023-06-14T13:49:57;27.90;39.40
20672;DHT22;10495;50.922;4.760;2023-06-14T13:52:23;27.90;39.60
20672;DHT22;10495;50.922;4.760;2023-06-14T13:54:49;28.10;40.10
20672;DHT22;10495;50.922;4.760;2023-06-14T13:57:15;27.70;39.80
20672;DHT22;10495;50.922;4.760;2023-06-14T13:59:41;27.90;39.80
20672;DHT22;10495;50.922;4.760;2023-06-14T14:02:09;27.80;39.50
20672;DHT22;10495;50.922;4.760;2023-06-14T14:04:35;27.80;40.10
20672;DHT22;10495;50.922;4.760;2023-06-14T14:07:04;27.80;39.80
20672;DHT22;10495;50.922;4.760;2023-06-14T14:09:31;27.70;40.00
20672;DHT22;10495;50.922;4.760;2023-06-14T14:11:58;28.00;39.70
20672;DHT22;10495;50.922;4.760;2023-06-14T14:14:23;28.20;39.50
20672;DHT22;10495;50.922;4.760;2023-06-14T14:16:49;28.10;39.80
20672;DHT22;10495;50.922;4.760;2023-06-14T14:19:17;28.10;39.50
20672;DHT22;10495;50.922;4.760;2023-06-14T14:21:44;28.10;39.60
20672;DHT22;10495;50.922;4.760;2023-06-14T14:24:10;27.90;40.10
20672;DHT22;10495;50.922;4.760;2023-06-14T14:26:36;27.70;40.50
20672;DHT22;10495;50.922;4.760;2023-06-14T14:29:01;27.60;39.80
20672;DHT22;10495;50.922;4.760;2023-06-14T14:31:28;28.00;39.80
20672;DHT22;10495;50.922;4.760;2023-06-14T14:33:53;28.00;40.00
20672;DHT22;10495;50.922;4.760;2023-06-14T14:36:19;28.00;40.30
20672;DHT22;10495;50.922;4.760;2023-06-14T14:38:45;27.90;40.20
20672;DHT22;10495;50.922;4.760;2023-06-14T14:41:10;27.80;40.30
20672;DHT22;10495;50.922;4.760;2023-06-14T14:43:36;27.80;39.90
20672;DHT22;10495;50.922;4.760;2023-06-14T14:46:01;27.80;40.00
20672;DHT22;10495;50.922;4.760;2023-06-14T14:48:27;27.70;39.70
20672;DHT22;10495;50.922;4.760;2023-06-14T14:50:53;28.00;40.30
20672;DHT22;10495;50.922;4.760;2023-06-14T14:53:18;28.00;39.90
20672;DHT22;10495;50.922;4.760;2023-06-14T14:55:44;27.90;39.90
20672;DHT22;10495;50.922;4.760;2023-06-14T14:58:10;27.80;40.20
20672;DHT22;10495;50.922;4.760;2023-06-14T15:00:35;28.00;40.10
20672;DHT22;10495;50.922;4.760;2023-06-14T15:03:01;27.80;39.60
20672;DHT22;10495;50.922;4.760;2023-06-14T15:05:26;27.90;40.30
20672;DHT22;10495;50.922;4.760;2023-06-14T15:07:52;27.90;40.30
20672;DHT22;10495;50.922;4.760;2023-06-14T15:10:18;28.00;39.40
20672;DHT22;10495;50.922;4.760;2023-06-14T15:12:43;27.90;39.90
20672;DHT22;10495;50.922;4.760;2023-06-14T15:15:09;27.90;40.30
20672;DHT22;10495;50.922;4.760;2023-06-14T15:17:35;27.80;40.10
20672;DHT22;10495;50.922;4.760;2023-06-14T15:20:01;27.80;40.10
20672;DHT22;10495;50.922;4.760;2023-06-14T15:22:26;27.80;40.20
20672;DHT22;10495;50.922;4.760;2023-06-14T15:24:52;27.60;39.80
20672;DHT22;10495;50.922;4.760;2023-06-14T15:27:17;27.60;40.60
20672;DHT22;10495;50.922;4.760;2023-06-14T15:29:44;27.50;40.10
20672;DHT22;10495;50.922;4.760;2023-06-14T15:32:10;27.60;40.40
20672;DHT22;10495;50.922;4.760;2023-06-14T15:34:36;27.50;40.60
20672;DHT22;10495;50.922;4.760;2023-06-14T15:37:05;27.60;40.50
20672;DHT22;10495;50.922;4.760;2023-06-14T15:39:31;28.00;40.10
20672;DHT22;10495;50.922;4.760;2023-06-14T15:41:57;27.60;39.90
20672;DHT22;10495;50.922;4.760;2023-06-14T15:44:23;27.30;40.20
20672;DHT22;10495;50.922;4.760;2023-06-14T15:46:48;27.30;40.20